• Join FlightAware (Why Join?)
  • Login
  • US Flag 
11:36PM EST


 

Airport Tracker/Info


-or-


 

Live Flight TrackerFlight Track Log ✈ UCA597 ✈ 13-Sep-2013 ✈ KIAD - KBGM

Flight Track Log - Related Links

Times and Time Zones

All times are in EDT time to prevent confusion due to time zone crossing. See the UCA597 flight status page for this flight to view local times or setup timezone preferences in your user account.

Time Position Orientation Groundspeed Altitude Reporting Facility
EDT Latitude Longitude Course Direction KTS MPH feet Rate Location/Type
05:46PM 38.9833 -77.4500 North 155 178 2,400  Level Potomac TRACON
05:47PM 39.0333 -77.4833 333° Northwest 163 188 3,800 1,320 Climbing Potomac TRACON
05:48PM 39.0667 -77.5167 322° Northwest 167 192 5,000 1,320 Climbing Potomac TRACON
05:50PM 39.1406 -77.5906 322° Northwest 171 197 7,900 1,260 Climbing Washington Center
05:51PM 39.3433 -77.2882 North  Level Estimated
05:51PM 39.1861 -77.6161 337° Northwest 171 197 9,000  Level Washington Center
05:52PM 39.2386 -77.5986 14° North 171 197 10,300 1,320 Climbing Washington Center
05:53PM 39.2950 -77.5789 15° North 183 211 11,700 840 Climbing Washington Center
05:54PM 39.3581 -77.5564 15° North 206 237 12,000 120 Climbing Washington Center
05:55PM 39.4292 -77.5314 15° North 238 274 12,000  Level Washington Center
05:56PM 39.5028 -77.5039 16° North 259 298 12,000 720 Level Washington Center
05:57PM 39.5697 -77.4786 16° North 259 298 13,500 1,440 Climbing Washington Center
05:58PM 39.6447 -77.4522 15° North 247 284 15,100 1,200 Climbing New York Center
05:59PM 39.7036 -77.4444 North 228 262 16,100 900 Climbing New York Center
06:00PM 39.7639 -77.4097 24° Northeast 226 260 16,900 780 Climbing New York Center
06:01PM 39.8219 -77.3828 20° North 226 260 17,700 840 Climbing New York Center
06:02PM 39.8778 -77.3500 24° Northeast 221 254 18,700 600 Climbing New York Center
06:03PM 39.9378 -77.3231 19° North 216 249 19,000 120 Climbing New York Center
06:04PM 40.0042 -77.2886 22° Northeast 234 269 19,000  Level New York Center
06:05PM 40.0797 -77.2469 23° Northeast 265 305 19,000  Level New York Center
06:06PM 40.1567 -77.2078 21° North 287 330 19,000  Level New York Center
06:07PM 40.2339 -77.1689 21° North 299 344 19,000  Level New York Center
06:08PM 40.3153 -77.1300 20° North 299 344 19,000  Level New York Center
06:09PM 40.3925 -77.0908 21° North 299 344 19,000  Level New York Center
06:10PM 40.4614 -77.0508 24° Northeast 299 344 19,000  Level New York Center
06:11PM 40.5492 -77.0069 21° North 299 344 19,000 -480 Level New York Center
06:12PM 40.6197 -76.9694 22° Northeast 299 344 18,100 -960 Descending New York Center
06:13PM 40.7142 -76.9178 23° Northeast 299 344 17,000 -1,020 Descending New York Center
06:14PM 40.8022 -76.8708 22° Northeast 299 344 16,000 -900 Descending New York Center
06:15PM 40.8706 -76.8358 21° North 294 338 15,200 -900 Descending New York Center
06:16PM 40.9456 -76.7983 21° North 294 338 14,300 -900 Descending New York Center
06:17PM 41.0164 -76.7581 23° Northeast 281 323 13,400 -660 Descending New York Center
06:18PM 41.0933 -76.7181 21° North 276 318 13,000 -240 Descending New York Center
06:19PM 41.1639 -76.6800 22° Northeast 276 318 13,000 -60 Level New York Center
06:20PM 41.2261 -76.6442 23° Northeast 276 318 12,900  Descending New York Center
06:21PM 41.2925 -76.6083 22° Northeast 266 306 13,000  Climbing New York Center
06:22PM 41.3675 -76.5681 22° Northeast 260 299 12,900  Descending New York Center
06:23PM 41.4358 -76.5322 21° North 260 299 13,000  Climbing New York Center
06:24PM 41.5022 -76.4964 22° Northeast 260 299 13,000  Level New York Center
06:25PM 41.5619 -76.4628 23° Northeast 260 299 13,000 -180 Level New York Center
06:26PM 41.6303 -76.4269 21° North 260 299 12,700 -720 Descending New York Center
06:27PM 41.7072 -76.3861 22° Northeast 260 299 11,600 -1,200 Descending New York Center
06:28PM 41.7781 -76.3447 24° Northeast 267 307 10,300 -1,500 Descending New York Center
06:29PM 41.8306 -76.2881 39° Northeast 256 295 8,700 -1,560 Descending New York Center
06:30PM 41.8647 -76.2242 54° Northeast 233 268 7,200 -1,560 Descending New York Center
06:31PM 41.9039 -76.1436 57° Northeast 228 262 5,600 -1,560 Descending New York Center
06:32PM 41.9142 -76.0525 81° East 228 262 4,100 -840 Descending New York Center
06:33PM 41.9200 -75.9667 85° East 235 270 4,000 -60 Descending New York Center
06:34PM 41.9253 -75.8917 85° East 230 265 4,000  Level New York Center
06:35PM 41.9408 -75.8206 74° East 217 250 4,000 -180 Level New York Center
06:36PM 41.9950 -75.8189 North 149 171 3,700 -60 Descending New York Center
06:37PM 42.0339 -75.8386 339° North 143 165 3,900 60 Climbing New York Center
06:38PM 42.0681 -75.8636 331° Northwest 141 162 3,900  Level New York Center
06:39PM 42.1022 -75.8942 326° Northwest 141 162 3,900 -300 Level New York Center
06:40PM 42.1306 -75.9133 333° Northwest 129 148 3,300 -600 Descending New York Center
06:42PM 42.2000 -75.9667 328° Northwest  Level FlightAware Approximate
06:49PM 42.2084 -75.9796 328° Northwest  Level Estimated
06:50PM 42.2084 -75.9796 328° Northwest  Level Estimated
06:51PM 42.2084 -75.9796 328° Northwest  Level Estimated
06:52PM 42.2084 -75.9796 328° Northwest  Level Estimated
06:53PM 42.2084 -75.9796 328° Northwest  Level Estimated
06:54PM 42.2084 -75.9796 328° Northwest  Level Estimated